Terminal Aerodrome Forecast
Issued by NWS

Home | Current Version | Previous Version | Text Only | Print | Product List | Glossary On
Versions: 1 2 3 4 5 6 7 8 9 10 11 12 13 14 15 16 17 18 19 20 21 22 23 24 25 26 27 28 29 30 31 32 33 34 35
000
FTAK31 PAFA 112329
TAFAQT
TAF
PAQT 112329Z 1200/1224 13008KT 5SM BR OVC021
     FM121300 08010KT 2SM BR OVC015
     FM122200 07018KT 1/2SM BLSN FG OVC007=

USA.gov is the U.S. government's official web portal to all federal, state and local government web resources and services.